createdAt,value
2022-09-16T00:01:02.811Z,1.57
2022-09-16T00:03:30.789Z,1.50
2022-09-16T00:05:58.687Z,1.30
2022-09-16T00:08:26.617Z,1.23
2022-09-16T00:10:54.511Z,1.20
2022-09-16T00:13:24.373Z,2.00
2022-09-16T00:15:52.389Z,2.30
2022-09-16T00:18:21.432Z,1.60
2022-09-16T00:20:51.514Z,1.07
2022-09-16T00:23:20.652Z,2.03
2022-09-16T00:25:52.885Z,1.90
2022-09-16T00:28:21.689Z,1.30
2022-09-16T00:30:51.056Z,1.27
2022-09-16T00:33:20.023Z,1.47
2022-09-16T00:35:48.422Z,2.30
2022-09-16T00:38:16.658Z,1.87
2022-09-16T00:40:49.550Z,1.27
2022-09-16T00:43:19.130Z,1.30
2022-09-16T00:45:51.868Z,1.70
2022-09-16T00:48:23.920Z,1.57
2022-09-16T00:50:55.669Z,1.53
2022-09-16T00:53:28.957Z,1.40
2022-09-16T00:56:01.239Z,1.30
2022-09-16T00:58:33.519Z,2.07
2022-09-16T01:01:05.143Z,1.73
2022-09-16T01:03:36.298Z,1.67
2022-09-16T01:06:04.504Z,1.27
2022-09-16T01:08:32.440Z,2.17
2022-09-16T01:11:00.347Z,1.80
2022-09-16T01:13:28.325Z,2.27
2022-09-16T01:16:04.336Z,1.60
2022-09-16T01:18:40.148Z,1.50
2022-09-16T01:21:32.714Z,1.73
2022-09-16T01:24:33.692Z,2.03
2022-09-16T01:27:36.690Z,1.10
2022-09-16T01:30:27.135Z,2.10
2022-09-16T01:33:04.900Z,2.07
2022-09-16T01:36:11.523Z,1.80
2022-09-16T01:38:56.699Z,2.20
2022-09-16T01:41:31.655Z,2.67
2022-09-16T01:44:07.529Z,1.53
2022-09-16T01:46:41.627Z,2.10
2022-09-16T01:49:19.390Z,2.47
2022-09-16T01:51:55.008Z,1.63
2022-09-16T01:54:29.119Z,2.63
2022-09-16T01:57:06.337Z,2.53
2022-09-16T01:59:42.339Z,2.10
2022-09-16T02:02:14.677Z,1.67
2022-09-16T02:04:48.455Z,2.57
2022-09-16T02:07:20.562Z,1.63
2022-09-16T02:09:54.006Z,2.70
2022-09-16T02:12:26.506Z,2.10
2022-09-16T02:14:58.587Z,1.63
2022-09-16T02:17:29.967Z,2.33
2022-09-16T02:20:03.093Z,1.97
2022-09-16T02:22:35.975Z,2.60
2022-09-16T02:25:06.062Z,2.50
2022-09-16T02:27:36.272Z,2.20
2022-09-16T02:30:08.427Z,1.57
2022-09-16T02:32:43.149Z,1.83
2022-09-16T02:35:16.600Z,2.23
2022-09-16T02:37:49.940Z,2.70
2022-09-16T02:40:21.288Z,1.60
2022-09-16T02:42:49.397Z,1.67
2022-09-16T02:45:18.093Z,2.57
2022-09-16T02:47:55.184Z,1.70
2022-09-16T02:50:30.363Z,2.37
2022-09-16T02:53:03.547Z,1.90
2022-09-16T02:55:39.781Z,2.00
2022-09-16T02:58:08.497Z,1.80
2022-09-16T03:00:40.474Z,1.23
2022-09-16T03:03:09.428Z,2.47
2022-09-16T03:05:50.670Z,1.87
2022-09-16T03:08:18.567Z,1.67
2022-09-16T03:10:47.907Z,1.40
2022-09-16T03:13:28.241Z,2.13
2022-09-16T03:16:03.198Z,3.10
2022-09-16T03:18:49.062Z,1.13
2022-09-16T03:21:26.620Z,1.30
2022-09-16T03:24:02.195Z,2.47
2022-09-16T03:26:36.009Z,1.70
2022-09-16T03:29:13.810Z,1.50
2022-09-16T03:31:48.713Z,1.60
2022-09-16T03:34:21.186Z,1.90
2022-09-16T03:36:56.323Z,1.47
2022-09-16T03:39:24.783Z,1.80
2022-09-16T03:41:52.963Z,2.00
2022-09-16T03:44:20.830Z,2.23
2022-09-16T03:46:49.000Z,2.30
2022-09-16T03:49:17.461Z,1.63
2022-09-16T03:51:45.339Z,2.77
2022-09-16T03:54:14.608Z,1.50
2022-09-16T03:56:42.527Z,2.20
2022-09-16T03:59:10.433Z,1.43
2022-09-16T04:01:38.326Z,1.60
2022-09-16T04:04:06.559Z,2.83
2022-09-16T04:06:34.463Z,2.63
2022-09-16T04:09:03.567Z,3.10
2022-09-16T04:11:32.893Z,2.30
2022-09-16T04:14:00.836Z,3.00
2022-09-16T04:16:28.712Z,2.20
2022-09-16T04:18:56.584Z,1.93
2022-09-16T04:21:24.819Z,1.60
2022-09-16T04:23:54.668Z,1.20
2022-09-16T04:26:22.811Z,1.33
2022-09-16T04:28:53.731Z,2.20
2022-09-16T04:31:22.222Z,2.27
2022-09-16T04:33:50.731Z,2.23
2022-09-16T04:36:20.597Z,1.97
2022-09-16T04:38:49.917Z,1.97
2022-09-16T04:41:19.866Z,2.50
2022-09-16T04:43:52.152Z,1.83
2022-09-16T04:46:21.789Z,1.37
2022-09-16T04:48:50.053Z,1.47
2022-09-16T04:51:19.604Z,1.77
2022-09-16T04:53:49.327Z,1.83
2022-09-16T04:56:19.601Z,2.23
2022-09-16T04:58:49.047Z,1.57
2022-09-16T05:01:19.575Z,1.77
2022-09-16T05:03:50.791Z,1.40
2022-09-16T05:06:21.149Z,2.37
2022-09-16T05:08:49.452Z,1.90
2022-09-16T05:11:19.675Z,2.20
2022-09-16T05:13:47.891Z,1.97
2022-09-16T05:16:17.974Z,1.60
2022-09-16T05:18:48.580Z,2.03
2022-09-16T05:21:18.188Z,2.90
2022-09-16T05:23:47.354Z,1.80
2022-09-16T05:26:17.643Z,2.10
2022-09-16T05:28:45.764Z,2.10
2022-09-16T05:31:15.565Z,2.10
2022-09-16T05:33:45.223Z,2.63
2022-09-16T05:36:16.547Z,1.73
2022-09-16T05:39:04.581Z,2.03
2022-09-16T05:41:32.809Z,2.50
2022-09-16T05:44:01.498Z,2.00
2022-09-16T05:46:29.854Z,1.80
2022-09-16T05:48:57.790Z,2.50
2022-09-16T05:51:27.063Z,1.73
2022-09-16T05:53:56.209Z,1.90
2022-09-16T05:56:26.323Z,2.80
2022-09-16T05:58:55.115Z,2.20
2022-09-16T06:01:25.690Z,2.33
2022-09-16T06:03:55.006Z,2.30
2022-09-16T06:06:27.542Z,2.27
2022-09-16T06:08:57.712Z,2.00
2022-09-16T06:11:26.590Z,2.00
2022-09-16T06:13:56.615Z,1.87
2022-09-16T06:16:26.775Z,1.40
2022-09-16T06:18:55.341Z,1.53
2022-09-16T06:21:23.708Z,1.87
2022-09-16T06:23:53.308Z,1.43
2022-09-16T06:26:24.266Z,2.40
2022-09-16T06:28:53.105Z,2.90
2022-09-16T06:31:22.990Z,2.13
2022-09-16T06:33:51.751Z,2.53
2022-09-16T06:36:21.530Z,2.10
2022-09-16T06:38:51.151Z,2.70
2022-09-16T06:41:21.483Z,2.13
2022-09-16T06:43:51.200Z,3.00
2022-09-16T06:46:22.912Z,2.17
2022-09-16T06:48:52.371Z,1.77
2022-09-16T06:51:23.066Z,2.20
2022-09-16T06:53:52.092Z,1.73
2022-09-16T06:56:22.433Z,2.10
2022-09-16T06:58:53.051Z,2.83
2022-09-16T07:01:22.542Z,1.73
2022-09-16T07:03:53.663Z,2.63
2022-09-16T07:06:26.630Z,1.37
2022-09-16T07:09:06.283Z,1.87
2022-09-16T07:11:35.522Z,2.23
2022-09-16T07:14:03.439Z,2.40
2022-09-16T07:16:31.413Z,2.10
2022-09-16T07:19:01.288Z,2.57
2022-09-16T07:21:30.686Z,2.57
2022-09-16T07:23:59.859Z,2.30
2022-09-16T07:26:29.485Z,2.47
2022-09-16T07:29:01.206Z,1.93
2022-09-16T07:31:32.200Z,2.17
2022-09-16T07:34:04.439Z,1.90
2022-09-16T07:36:34.987Z,1.97
2022-09-16T07:39:03.560Z,2.60
2022-09-16T07:41:35.186Z,2.53
2022-09-16T07:44:06.429Z,2.37
2022-09-16T07:46:36.449Z,2.93
2022-09-16T07:49:06.607Z,2.50
2022-09-16T07:51:35.521Z,2.00
2022-09-16T07:54:05.926Z,3.53
2022-09-16T07:56:36.306Z,2.80
2022-09-16T07:59:08.713Z,2.63
2022-09-16T08:01:41.336Z,2.57
2022-09-16T08:04:11.274Z,2.30
2022-09-16T08:06:40.594Z,2.30
2022-09-16T08:09:27.324Z,2.80
2022-09-16T08:11:56.658Z,2.73
2022-09-16T08:14:26.079Z,1.80
2022-09-16T08:16:54.025Z,2.73
2022-09-16T08:19:22.599Z,2.10
2022-09-16T08:21:50.573Z,2.53
2022-09-16T08:24:18.474Z,1.83
2022-09-16T08:26:47.019Z,2.10
2022-09-16T08:29:15.239Z,2.50
2022-09-16T08:31:44.687Z,1.93
2022-09-16T08:34:12.674Z,1.90
2022-09-16T08:36:40.844Z,1.87
2022-09-16T08:39:11.504Z,2.90
2022-09-16T08:42:10.005Z,2.40
2022-09-16T08:44:45.995Z,2.50
2022-09-16T08:47:26.215Z,1.83
2022-09-16T08:49:54.365Z,1.97
2022-09-16T08:52:29.752Z,1.00
2022-09-16T08:55:00.522Z,1.70
2022-09-16T08:57:31.310Z,1.70
2022-09-16T09:00:03.141Z,1.80
2022-09-16T09:05:16.380Z,1.00
2022-09-16T09:07:54.606Z,1.73
2022-09-16T09:10:27.594Z,2.10
2022-09-16T09:13:03.980Z,1.50
2022-09-16T09:15:41.193Z,1.53
2022-09-16T09:18:21.162Z,2.00
2022-09-16T09:20:55.529Z,1.77
2022-09-16T09:23:36.862Z,2.17
2022-09-16T09:26:09.869Z,1.40
2022-09-16T09:28:55.865Z,1.20
2022-09-16T09:31:31.748Z,1.00
2022-09-16T09:34:12.819Z,1.37
2022-09-16T09:36:53.535Z,1.20
2022-09-16T09:39:38.829Z,1.73
2022-09-16T09:42:12.185Z,1.27
2022-09-16T09:44:48.797Z,1.80
2022-09-16T09:47:20.982Z,1.50
2022-09-16T09:49:54.285Z,1.00
2022-09-16T09:52:28.951Z,1.33
2022-09-16T09:55:01.863Z,1.80
2022-09-16T09:57:35.435Z,1.67
2022-09-16T10:00:10.104Z,2.03
2022-09-16T10:02:40.692Z,1.40
2022-09-16T10:05:20.635Z,1.70
2022-09-16T10:07:49.109Z,1.70
2022-09-16T10:10:21.684Z,1.47
2022-09-16T10:12:49.621Z,1.53
2022-09-16T10:15:22.970Z,1.60
2022-09-16T10:17:52.165Z,1.80
2022-09-16T10:20:28.569Z,1.03
2022-09-16T10:23:02.060Z,1.37
2022-09-16T10:25:32.200Z,1.10
2022-09-16T10:28:01.382Z,1.30
2022-09-16T10:30:34.169Z,1.70
2022-09-16T10:33:04.610Z,1.23
2022-09-16T10:35:35.744Z,0.97
2022-09-16T10:38:06.618Z,1.20
2022-09-16T10:40:35.285Z,0.73
2022-09-16T10:43:05.691Z,0.90
2022-09-16T10:45:37.293Z,1.00
2022-09-16T10:48:12.547Z,1.60
2022-09-16T10:50:53.046Z,1.30
2022-09-16T10:53:28.344Z,0.97
2022-09-16T10:56:01.044Z,1.17
2022-09-16T10:58:29.321Z,0.90
2022-09-16T11:01:15.805Z,1.40
2022-09-16T11:04:12.329Z,1.00
2022-09-16T11:06:58.353Z,0.80
2022-09-16T11:09:33.626Z,0.80
2022-09-16T11:12:25.715Z,1.00
2022-09-16T11:15:02.207Z,1.10
2022-09-16T11:17:42.129Z,0.77
2022-09-16T11:20:46.458Z,1.00
2022-09-16T11:23:31.098Z,1.10
2022-09-16T11:26:05.434Z,0.83
2022-09-16T11:29:09.479Z,1.20
2022-09-16T11:31:46.462Z,1.40
2022-09-16T11:34:28.050Z,0.97
2022-09-16T11:37:05.784Z,1.30
2022-09-16T11:39:51.318Z,1.47
2022-09-16T11:42:29.224Z,0.80
2022-09-16T11:45:08.860Z,1.10
2022-09-16T11:48:00.490Z,1.47
2022-09-16T11:50:41.842Z,0.93
2022-09-16T11:53:30.878Z,1.00
2022-09-16T11:56:07.084Z,0.93
2022-09-16T11:58:42.467Z,0.77
2022-09-16T12:01:19.417Z,0.83
2022-09-16T12:03:52.656Z,0.97
2022-09-16T12:06:24.690Z,1.20
2022-09-16T12:08:58.344Z,0.97
2022-09-16T12:11:33.097Z,1.30
2022-09-16T12:14:09.403Z,1.40
2022-09-16T12:16:43.689Z,1.50
2022-09-16T12:19:17.901Z,0.80
2022-09-16T12:21:51.078Z,1.70
2022-09-16T12:24:32.045Z,1.10
2022-09-16T12:27:07.621Z,1.23
2022-09-16T12:29:41.809Z,1.80
2022-09-16T12:32:14.159Z,1.53
2022-09-16T12:34:50.275Z,1.27
2022-09-16T12:37:30.418Z,1.37
2022-09-16T12:39:58.430Z,1.00
2022-09-16T12:43:04.767Z,1.03
2022-09-16T12:45:54.861Z,1.50
2022-09-16T12:49:06.825Z,1.67
2022-09-16T12:52:01.882Z,1.30
2022-09-16T12:55:06.563Z,1.87
2022-09-16T12:57:48.255Z,1.20
2022-09-16T13:00:21.052Z,1.53
2022-09-16T13:02:52.213Z,1.50
2022-09-16T13:05:28.291Z,1.23
2022-09-16T13:08:01.763Z,1.30
2022-09-16T13:10:57.761Z,1.63
2022-09-16T13:13:31.045Z,1.40
2022-09-16T13:16:01.505Z,1.23
2022-09-16T13:18:42.620Z,0.83
2022-09-16T13:21:23.668Z,1.13
2022-09-16T13:24:01.363Z,1.10
2022-09-16T13:26:40.555Z,1.17
2022-09-16T13:29:29.199Z,1.10
2022-09-16T13:31:57.175Z,1.50
2022-09-16T13:34:25.254Z,1.43
2022-09-16T13:36:53.179Z,1.13
2022-09-16T13:39:31.260Z,1.20
2022-09-16T13:42:11.672Z,1.33
2022-09-16T13:44:44.209Z,1.00
2022-09-16T13:47:29.937Z,1.00
2022-09-16T13:50:02.007Z,1.13
2022-09-16T13:52:32.262Z,1.10
2022-09-16T13:55:11.083Z,1.57
2022-09-16T13:58:00.200Z,1.53
2022-09-16T14:00:36.214Z,1.10
2022-09-16T14:03:37.835Z,1.03
2022-09-16T14:06:28.102Z,1.13
2022-09-16T14:09:03.104Z,3.30
2022-09-16T14:11:50.566Z,1.07
2022-09-16T14:17:20.467Z,1.30
2022-09-16T14:19:50.465Z,1.17
2022-09-16T14:22:21.731Z,3.77
2022-09-16T14:24:56.691Z,0.90
2022-09-16T14:27:39.393Z,1.00
2022-09-16T14:30:15.028Z,1.33
2022-09-16T14:32:44.793Z,1.40
2022-09-16T14:35:18.592Z,1.33
2022-09-16T14:37:49.991Z,1.20
2022-09-16T14:40:21.749Z,1.23
2022-09-16T14:42:54.090Z,1.00
2022-09-16T14:45:23.226Z,0.90
2022-09-16T14:47:55.762Z,1.10
2022-09-16T14:50:26.311Z,0.97
2022-09-16T14:52:56.114Z,1.63
2022-09-16T14:55:31.731Z,0.83
2022-09-16T14:58:00.271Z,0.83
2022-09-16T15:00:32.892Z,1.10
2022-09-16T15:03:07.157Z,1.37
2022-09-16T15:05:38.575Z,1.63
2022-09-16T15:08:14.782Z,1.50
2022-09-16T15:10:52.403Z,1.77
2022-09-16T15:13:23.878Z,1.33
2022-09-16T15:15:54.425Z,1.33
2022-09-16T15:18:28.562Z,1.60
2022-09-16T15:21:04.902Z,1.03
2022-09-16T15:23:34.358Z,1.43
2022-09-16T15:26:12.639Z,1.13
2022-09-16T15:28:51.641Z,1.20
2022-09-16T15:31:32.142Z,1.17
2022-09-16T15:34:03.662Z,1.33
2022-09-16T15:36:37.749Z,1.77
2022-09-16T15:39:07.146Z,1.40
2022-09-16T15:41:35.080Z,2.30
2022-09-16T15:44:03.211Z,2.00
2022-09-16T15:46:31.348Z,2.60
2022-09-16T15:49:02.964Z,1.30
2022-09-16T15:51:35.953Z,1.10
2022-09-16T15:54:16.242Z,2.23
2022-09-16T15:56:55.058Z,1.20
2022-09-16T15:59:29.133Z,1.33
2022-09-16T16:02:00.739Z,1.20
2022-09-16T16:04:33.529Z,1.33
2022-09-16T16:07:03.029Z,1.00
2022-09-16T16:09:39.611Z,1.73
2022-09-16T16:12:10.362Z,1.43
2022-09-16T16:14:40.379Z,1.40
2022-09-16T16:17:13.642Z,1.20
2022-09-16T16:19:43.911Z,1.90
2022-09-16T16:22:12.452Z,1.77
2022-09-16T16:24:40.736Z,1.13
2022-09-16T16:27:10.199Z,1.70
2022-09-16T16:29:39.047Z,1.40
2022-09-16T16:32:09.875Z,1.40
2022-09-16T16:34:40.265Z,1.73
2022-09-16T16:37:19.184Z,1.60
2022-09-16T16:39:56.368Z,1.70
2022-09-16T16:42:25.103Z,1.47
2022-09-16T16:44:52.990Z,1.60
2022-09-16T16:47:20.887Z,1.90
2022-09-16T16:49:51.514Z,1.40
2022-09-16T16:52:20.864Z,1.33
2022-09-16T16:54:48.783Z,1.33
2022-09-16T16:57:16.886Z,1.70
2022-09-16T16:59:44.798Z,1.43
2022-09-16T17:02:14.955Z,1.37
2022-09-16T17:04:43.003Z,2.90
2022-09-16T17:07:27.669Z,2.33
2022-09-16T17:09:58.574Z,2.03
2022-09-16T17:12:26.946Z,2.33
2022-09-16T17:14:54.885Z,2.33
2022-09-16T17:17:25.407Z,1.13
2022-09-16T17:19:56.930Z,2.50
2022-09-16T17:22:24.811Z,1.83
2022-09-16T17:24:52.687Z,2.20
2022-09-16T17:27:24.654Z,1.60
2022-09-16T17:29:52.618Z,1.40
2022-09-16T17:32:20.579Z,1.53
2022-09-16T17:34:48.512Z,1.80
2022-09-16T17:37:19.752Z,1.20
2022-09-16T17:39:48.596Z,1.50
2022-09-16T17:42:16.702Z,1.23
2022-09-16T17:44:46.141Z,2.03
2022-09-16T17:47:14.091Z,1.70
2022-09-16T17:49:42.018Z,1.73
2022-09-16T17:52:09.933Z,1.70
2022-09-16T17:54:37.882Z,1.80
2022-09-16T17:57:05.834Z,2.23
2022-09-16T17:59:33.731Z,1.30
2022-09-16T18:02:03.478Z,1.30
2022-09-16T18:04:31.994Z,1.17
2022-09-16T18:06:59.940Z,1.10
2022-09-16T18:09:27.866Z,1.60
2022-09-16T18:11:58.289Z,1.30
2022-09-16T18:14:26.220Z,1.10
2022-09-16T18:16:54.335Z,1.07
2022-09-16T18:19:23.692Z,1.50
2022-09-16T18:21:51.609Z,1.80
2022-09-16T18:24:20.051Z,1.60
2022-09-16T18:26:49.349Z,1.60
2022-09-16T18:29:17.566Z,1.40
2022-09-16T18:31:47.872Z,0.97
2022-09-16T18:34:16.866Z,1.80
2022-09-16T18:36:46.494Z,2.30
2022-09-16T18:39:15.915Z,2.40
2022-09-16T18:41:45.865Z,1.53
2022-09-16T18:44:16.378Z,1.27
2022-09-16T18:46:44.463Z,1.40
2022-09-16T18:49:13.985Z,1.27
2022-09-16T18:51:47.426Z,1.20
2022-09-16T18:54:24.454Z,1.40
2022-09-16T18:56:52.849Z,1.67
2022-09-16T18:59:24.237Z,2.33
2022-09-16T19:01:53.733Z,1.53
2022-09-16T19:04:24.106Z,1.17
2022-09-16T19:06:54.148Z,0.87
2022-09-16T19:09:25.329Z,1.80
2022-09-16T19:11:54.560Z,1.00
2022-09-16T19:14:24.726Z,1.40
2022-09-16T19:16:53.262Z,1.20
2022-09-16T19:19:21.859Z,2.00
2022-09-16T19:21:50.181Z,1.23
2022-09-16T19:24:19.897Z,1.17
2022-09-16T19:26:50.838Z,1.67
2022-09-16T19:29:19.517Z,1.47
2022-09-16T19:31:49.377Z,1.20
2022-09-16T19:34:18.291Z,1.13
2022-09-16T19:36:46.223Z,1.73
2022-09-16T19:39:14.633Z,1.40
2022-09-16T19:41:43.212Z,2.00
2022-09-16T19:44:14.731Z,1.10
2022-09-16T19:46:44.705Z,1.10
2022-09-16T19:49:17.309Z,1.37
2022-09-16T19:51:45.206Z,1.10
2022-09-16T19:54:13.716Z,1.47
2022-09-16T19:56:41.906Z,1.40
2022-09-16T19:59:10.337Z,0.93
2022-09-16T20:01:39.887Z,1.00
2022-09-16T20:04:09.422Z,1.13
2022-09-16T20:06:39.836Z,1.13
2022-09-16T20:09:11.433Z,1.03
2022-09-16T20:11:40.919Z,0.97
2022-09-16T20:14:13.559Z,1.20
2022-09-16T20:16:43.180Z,1.10
2022-09-16T20:19:13.370Z,0.80
2022-09-16T20:21:41.791Z,1.17
2022-09-16T20:24:14.874Z,1.20
2022-09-16T20:26:42.904Z,1.63
2022-09-16T20:29:10.905Z,0.93
2022-09-16T20:31:39.302Z,0.87
2022-09-16T20:34:08.629Z,0.87
2022-09-16T20:36:39.213Z,0.97
2022-09-16T20:39:08.890Z,0.90
2022-09-16T20:41:38.555Z,1.00
2022-09-16T20:44:07.113Z,1.00
2022-09-16T20:46:37.001Z,1.10
2022-09-16T20:49:10.432Z,1.00
2022-09-16T20:51:39.721Z,0.97
2022-09-16T20:54:09.391Z,0.60
2022-09-16T20:56:39.343Z,0.80
2022-09-16T20:59:08.484Z,1.13
2022-09-16T21:01:38.052Z,0.70
2022-09-16T21:04:08.160Z,0.87
2022-09-16T21:06:36.967Z,1.10
2022-09-16T21:09:08.779Z,0.83
2022-09-16T21:11:37.329Z,0.60
2022-09-16T21:14:07.713Z,1.23
2022-09-16T21:16:37.292Z,1.03
2022-09-16T21:19:09.262Z,1.37
2022-09-16T21:21:39.555Z,0.90
2022-09-16T21:24:09.786Z,1.10
2022-09-16T21:26:40.216Z,0.83
2022-09-16T21:29:11.210Z,0.70
2022-09-16T21:31:40.617Z,0.80
2022-09-16T21:34:12.441Z,1.43
2022-09-16T21:36:40.529Z,0.80
2022-09-16T21:39:11.231Z,0.90
2022-09-16T21:41:39.163Z,0.90
2022-09-16T21:44:07.413Z,0.80
2022-09-16T21:46:41.205Z,0.93
2022-09-16T21:49:19.159Z,0.80
2022-09-16T21:51:47.729Z,0.93
2022-09-16T21:54:20.140Z,1.00
2022-09-16T21:56:49.237Z,0.87
2022-09-16T21:59:19.441Z,0.97
2022-09-16T22:01:47.980Z,0.60
2022-09-16T22:04:17.792Z,1.07
2022-09-16T22:06:46.197Z,1.00
2022-09-16T22:09:14.233Z,1.10
2022-09-16T22:11:43.879Z,0.97
2022-09-16T22:14:12.401Z,1.53
2022-09-16T22:16:41.633Z,0.70
2022-09-16T22:19:12.214Z,1.03
2022-09-16T22:21:42.131Z,1.10
2022-09-16T22:24:10.481Z,0.80
2022-09-16T22:26:39.001Z,1.10
2022-09-16T22:29:09.427Z,0.83
2022-09-16T22:31:39.199Z,0.70
2022-09-16T22:34:07.371Z,0.70
2022-09-16T22:36:36.922Z,0.80
2022-09-16T22:39:07.725Z,1.10
2022-09-16T22:41:35.915Z,0.70
2022-09-16T22:44:04.126Z,0.90
2022-09-16T22:46:35.710Z,0.70
2022-09-16T22:49:03.673Z,0.60
2022-09-16T22:51:31.827Z,0.97
2022-09-16T22:53:59.753Z,1.10
2022-09-16T22:56:32.104Z,0.80
2022-09-16T22:59:01.696Z,0.80
2022-09-16T23:01:32.086Z,1.10
2022-09-16T23:04:02.939Z,0.90
2022-09-16T23:06:32.682Z,0.70
2022-09-16T23:09:01.602Z,0.60
2022-09-16T23:11:32.406Z,0.90
2022-09-16T23:14:01.323Z,0.60
2022-09-16T23:16:31.416Z,0.80
2022-09-16T23:19:02.423Z,0.80
2022-09-16T23:21:30.957Z,0.67
2022-09-16T23:24:01.539Z,0.50
2022-09-16T23:26:32.069Z,0.80
2022-09-16T23:29:01.702Z,0.50
2022-09-16T23:31:31.019Z,0.60
2022-09-16T23:33:59.311Z,0.70
2022-09-16T23:36:29.385Z,0.60
2022-09-16T23:38:57.454Z,0.50
2022-09-16T23:41:27.263Z,0.80
2022-09-16T23:43:56.891Z,1.10
2022-09-16T23:46:26.921Z,0.70
2022-09-16T23:48:55.245Z,0.70
2022-09-16T23:51:28.239Z,0.60
2022-09-16T23:53:58.691Z,0.60
2022-09-16T23:56:27.379Z,0.50
2022-09-16T23:58:58.519Z,0.60
